マドリード/バラハス の空港の天気 - METARとTAF

マドリード・バラハス国際空港 ( LEMD / MAD ) - スペイン マドリード
飛行場実況気象(Metar)
観測時間12/10 06:00 CET (12/10 05:00 UTC)
風向・風速北北西 1m/s
視程10km以上
天気現象
なし
気温0℃
湿度100%
気圧1030hPa
METARLEMD 100500Z 34002KT CAVOK 00/00 Q1030 NOSIG
過去の天気等 Google飛行場航空写真 Wunderground天気予報

過去48時間のMETAR

飛行場予報(TAF)
発表時間: 12/10 00:00 CET (12/09 23:00 UTC)
予報対象時間: 10日1時 CET ~ 11日7時 CET
風向・風速不定 2m/s
視程10km以上
なし
10日1時 CET ~ 10日9時 CET に 確率 30% で一時的に
視程3000m
天気現象もや
TAF COR LEMD 092300Z 1000/1106 VRB03KT CAVOK TX16/1015Z TN01/1106Z
PROB30 TEMPO 1000/1008 3000 BR